createdAt,value
2022-10-29T00:00:14.559Z,7.00
2022-10-29T00:02:40.990Z,7.00
2022-10-29T00:05:07.602Z,7.17
2022-10-29T00:07:34.068Z,7.40
2022-10-29T00:10:00.482Z,6.73
2022-10-29T00:12:27.251Z,7.50
2022-10-29T00:14:53.670Z,6.90
2022-10-29T00:17:20.029Z,6.77
2022-10-29T00:19:46.403Z,7.03
2022-10-29T00:22:12.802Z,7.33
2022-10-29T00:24:39.184Z,7.00
2022-10-29T00:27:05.639Z,7.50
2022-10-29T00:29:32.122Z,7.27
2022-10-29T00:31:58.661Z,6.97
2022-10-29T00:34:25.103Z,7.00
2022-10-29T00:36:51.490Z,6.73
2022-10-29T00:39:18.016Z,6.70
2022-10-29T00:41:44.452Z,6.87
2022-10-29T00:44:22.832Z,7.17
2022-10-29T00:47:04.254Z,6.90
2022-10-29T00:49:34.270Z,7.17
2022-10-29T00:52:02.357Z,6.77
2022-10-29T00:54:30.115Z,7.43
2022-10-29T00:56:59.770Z,6.83
2022-10-29T00:59:26.736Z,7.30
2022-10-29T01:01:54.010Z,6.80
2022-10-29T01:04:20.574Z,7.10
2022-10-29T01:06:47.484Z,6.87
2022-10-29T01:09:13.989Z,6.27
2022-10-29T01:11:58.861Z,6.40
2022-10-29T01:14:28.309Z,6.93
2022-10-29T01:17:00.365Z,7.10
2022-10-29T01:19:45.659Z,6.57
2022-10-29T01:22:30.419Z,6.93
2022-10-29T01:25:02.793Z,6.37
2022-10-29T01:27:38.332Z,7.27
2022-10-29T01:30:17.186Z,6.17
2022-10-29T01:33:02.395Z,6.70
2022-10-29T01:35:55.181Z,6.30
2022-10-29T01:38:28.096Z,6.27
2022-10-29T01:41:16.168Z,6.00
2022-10-29T01:43:47.086Z,6.07
2022-10-29T01:46:19.156Z,6.00
2022-10-29T01:48:50.192Z,6.03
2022-10-29T01:51:24.717Z,6.63
2022-10-29T01:53:51.268Z,6.20
2022-10-29T01:56:17.717Z,5.53
2022-10-29T01:58:47.078Z,5.60
2022-10-29T02:01:13.516Z,6.00
2022-10-29T02:04:01.142Z,5.70
2022-10-29T02:06:43.138Z,6.43
2022-10-29T02:09:17.183Z,5.40
2022-10-29T02:11:52.189Z,6.07
2022-10-29T02:14:18.595Z,5.57
2022-10-29T02:16:45.188Z,5.50
2022-10-29T02:19:11.610Z,5.50
2022-10-29T02:21:40.391Z,5.73
2022-10-29T02:24:07.377Z,5.23
2022-10-29T02:26:33.748Z,4.93
2022-10-29T02:29:00.195Z,5.53
2022-10-29T02:31:26.571Z,5.23
2022-10-29T02:33:52.954Z,4.97
2022-10-29T02:36:19.462Z,4.77
2022-10-29T02:38:45.867Z,5.60
2022-10-29T02:41:12.222Z,5.57
2022-10-29T02:43:38.611Z,5.93
2022-10-29T02:46:12.189Z,6.10
2022-10-29T02:48:38.586Z,6.00
2022-10-29T02:51:05.137Z,5.07
2022-10-29T02:53:31.708Z,5.40
2022-10-29T02:55:58.129Z,5.23
2022-10-29T02:58:24.523Z,5.70
2022-10-29T03:00:51.266Z,5.87
2022-10-29T03:03:17.657Z,5.27
2022-10-29T03:05:48.109Z,5.37
2022-10-29T03:08:15.939Z,6.13
2022-10-29T03:10:42.563Z,5.30
2022-10-29T03:13:08.961Z,5.40
2022-10-29T03:15:35.496Z,5.10
2022-10-29T03:18:02.087Z,5.60
2022-10-29T03:20:28.600Z,5.67
2022-10-29T03:22:55.058Z,5.53
2022-10-29T03:25:21.418Z,5.17
2022-10-29T03:27:48.345Z,5.70
2022-10-29T03:30:15.893Z,5.03
2022-10-29T03:32:43.080Z,5.37
2022-10-29T03:35:10.192Z,4.80
2022-10-29T03:37:36.865Z,5.00
2022-10-29T03:40:04.122Z,5.43
2022-10-29T03:42:33.484Z,5.20
2022-10-29T03:45:00.613Z,4.93
2022-10-29T03:47:27.825Z,4.83
2022-10-29T03:49:54.736Z,5.37
2022-10-29T03:52:21.560Z,5.17
2022-10-29T03:54:47.920Z,4.73
2022-10-29T03:57:14.300Z,4.93
2022-10-29T03:59:40.760Z,5.00
2022-10-29T04:02:07.277Z,4.73
2022-10-29T04:04:33.768Z,4.70
2022-10-29T04:07:00.140Z,5.17
2022-10-29T04:09:26.544Z,4.57
2022-10-29T04:11:52.914Z,5.17
2022-10-29T04:14:19.279Z,4.70
2022-10-29T04:16:45.693Z,5.43
2022-10-29T04:19:12.137Z,4.90
2022-10-29T04:29:57.747Z,4.90
2022-10-29T04:32:24.204Z,5.33
2022-10-29T04:34:50.570Z,4.80
2022-10-29T04:37:16.932Z,4.97
2022-10-29T04:39:43.355Z,5.40
2022-10-29T04:42:09.750Z,5.70
2022-10-29T04:44:36.212Z,4.87
2022-10-29T04:47:02.601Z,5.33
2022-10-29T04:49:29.049Z,4.70
2022-10-29T04:51:55.471Z,4.63
2022-10-29T04:54:21.883Z,5.27
2022-10-29T04:56:48.279Z,5.03
2022-10-29T04:59:14.648Z,4.50
2022-10-29T05:01:41.158Z,5.33
2022-10-29T05:04:07.583Z,5.33
2022-10-29T05:06:33.966Z,4.67
2022-10-29T05:09:00.444Z,5.50
2022-10-29T05:11:26.871Z,5.47
2022-10-29T05:13:53.291Z,4.77
2022-10-29T05:16:22.073Z,5.50
2022-10-29T05:18:51.490Z,5.50
2022-10-29T05:21:18.609Z,5.93
2022-10-29T05:23:45.022Z,5.73
2022-10-29T05:26:14.139Z,5.23
2022-10-29T05:28:40.543Z,6.23
2022-10-29T05:31:07.358Z,6.07
2022-10-29T05:33:33.774Z,5.27
2022-10-29T05:36:01.133Z,6.00
2022-10-29T05:38:27.560Z,5.20
2022-10-29T05:40:53.923Z,5.20
2022-10-29T05:43:20.405Z,5.00
2022-10-29T05:45:47.323Z,5.40
2022-10-29T05:48:13.912Z,5.20
2022-10-29T05:50:40.554Z,5.00
2022-10-29T05:53:08.194Z,5.43
2022-10-29T05:55:35.020Z,5.67
2022-10-29T05:58:12.013Z,5.00
2022-10-29T06:00:39.528Z,5.47
2022-10-29T06:03:12.989Z,6.27
2022-10-29T06:05:39.750Z,5.30
2022-10-29T06:08:06.284Z,4.90
2022-10-29T06:10:32.810Z,5.33
2022-10-29T06:12:59.223Z,5.03
2022-10-29T06:15:25.677Z,5.53
2022-10-29T06:17:52.097Z,5.13
2022-10-29T06:20:20.585Z,4.80
2022-10-29T06:22:47.131Z,5.47
2022-10-29T06:25:13.588Z,4.67
2022-10-29T06:27:39.949Z,5.10
2022-10-29T06:30:06.887Z,5.83
2022-10-29T06:32:33.283Z,4.90
2022-10-29T06:34:59.671Z,4.60
2022-10-29T06:37:26.171Z,5.27
2022-10-29T06:39:52.555Z,5.40
2022-10-29T06:42:18.952Z,5.63
2022-10-29T06:44:45.327Z,5.37
2022-10-29T06:47:11.686Z,4.60
2022-10-29T06:49:38.084Z,5.30
2022-10-29T06:52:04.578Z,6.57
2022-10-29T06:54:31.073Z,5.77
2022-10-29T06:56:57.448Z,5.80
2022-10-29T06:59:24.497Z,4.97
2022-10-29T07:01:51.120Z,4.93
2022-10-29T07:04:18.572Z,5.60
2022-10-29T07:06:45.128Z,5.57
2022-10-29T07:09:11.541Z,5.80
2022-10-29T07:11:37.999Z,6.20
2022-10-29T07:14:05.955Z,8.80
2022-10-29T07:16:32.418Z,7.87
2022-10-29T07:18:58.874Z,6.07
2022-10-29T07:21:25.264Z,6.00
2022-10-29T07:23:51.658Z,6.70
2022-10-29T07:26:18.199Z,6.93
2022-10-29T07:28:44.602Z,6.30
2022-10-29T07:31:11.073Z,6.50
2022-10-29T07:33:37.474Z,6.57
2022-10-29T07:36:04.052Z,5.23
2022-10-29T07:38:30.469Z,5.77
2022-10-29T07:40:56.870Z,5.20
2022-10-29T07:43:23.548Z,5.00
2022-10-29T07:45:50.329Z,5.20
2022-10-29T07:48:17.355Z,6.33
2022-10-29T07:50:43.827Z,6.20
2022-10-29T07:53:10.586Z,5.30
2022-10-29T07:55:37.040Z,5.67
2022-10-29T07:58:04.770Z,4.63
2022-10-29T08:00:32.209Z,6.87
2022-10-29T08:03:00.272Z,5.27
2022-10-29T08:05:27.157Z,6.47
2022-10-29T08:07:54.966Z,5.03
2022-10-29T08:10:22.292Z,4.70
2022-10-29T08:12:53.107Z,5.47
2022-10-29T08:15:20.335Z,5.17
2022-10-29T08:17:46.771Z,5.47
2022-10-29T08:20:13.907Z,4.60
2022-10-29T08:22:40.263Z,4.57
2022-10-29T08:25:06.795Z,4.70
2022-10-29T08:27:33.404Z,4.30
2022-10-29T08:29:59.878Z,4.60
2022-10-29T08:32:26.279Z,4.97
2022-10-29T08:34:52.707Z,4.90
2022-10-29T08:37:19.086Z,4.40
2022-10-29T08:39:45.471Z,4.53
2022-10-29T08:42:24.114Z,4.53
2022-10-29T08:45:00.612Z,4.60
2022-10-29T08:47:27.069Z,4.47
2022-10-29T08:49:59.316Z,4.63
2022-10-29T08:52:27.571Z,5.30
2022-10-29T08:55:14.222Z,4.67
2022-10-29T08:57:45.213Z,4.43
2022-10-29T09:00:22.247Z,4.57
2022-10-29T09:02:54.063Z,4.50
2022-10-29T09:05:24.866Z,4.70
2022-10-29T09:08:01.238Z,4.87
2022-10-29T09:10:33.603Z,4.20
2022-10-29T09:13:12.413Z,4.83
2022-10-29T09:15:45.520Z,4.57
2022-10-29T09:18:21.358Z,5.10
2022-10-29T09:21:06.601Z,4.80
2022-10-29T09:23:38.786Z,4.23
2022-10-29T09:26:20.980Z,4.60
2022-10-29T09:29:05.959Z,4.50
2022-10-29T09:31:32.346Z,4.77
2022-10-29T09:34:03.358Z,4.73
2022-10-29T09:36:29.840Z,5.17
2022-10-29T09:39:03.970Z,5.03
2022-10-29T09:41:31.923Z,5.43
2022-10-29T09:44:02.469Z,5.03
2022-10-29T09:46:53.418Z,4.83
2022-10-29T09:49:37.967Z,4.70
2022-10-29T09:52:06.283Z,4.20
2022-10-29T09:54:32.846Z,4.43
2022-10-29T09:57:00.300Z,4.60
2022-10-29T09:59:26.736Z,4.50
2022-10-29T10:01:53.471Z,4.23
2022-10-29T10:04:37.426Z,4.73
2022-10-29T10:07:05.689Z,4.90
2022-10-29T10:09:50.671Z,4.87
2022-10-29T10:12:17.497Z,4.47
2022-10-29T10:14:43.917Z,4.97
2022-10-29T10:17:10.291Z,4.73
2022-10-29T10:19:42.058Z,4.83
2022-10-29T10:22:16.416Z,4.37
2022-10-29T10:24:43.535Z,5.20
2022-10-29T10:27:19.118Z,5.50
2022-10-29T10:30:03.671Z,5.10
2022-10-29T10:32:30.144Z,5.30
2022-10-29T10:34:56.519Z,5.30
2022-10-29T10:37:23.539Z,4.70
2022-10-29T10:39:49.916Z,4.80
2022-10-29T10:42:16.273Z,5.10
2022-10-29T10:44:54.426Z,4.87
2022-10-29T10:47:24.437Z,5.10
2022-10-29T10:49:50.949Z,5.20
2022-10-29T10:52:31.162Z,5.33
2022-10-29T10:55:03.069Z,5.33
2022-10-29T10:57:32.462Z,5.60
2022-10-29T11:00:13.733Z,5.60
2022-10-29T11:02:49.118Z,5.40
2022-10-29T11:05:19.979Z,5.00
2022-10-29T11:07:55.157Z,5.50
2022-10-29T11:10:24.102Z,5.10
2022-10-29T11:12:54.255Z,5.47
2022-10-29T11:15:36.099Z,5.50
2022-10-29T11:18:18.772Z,6.20
2022-10-29T11:20:48.071Z,5.93
2022-10-29T11:23:14.853Z,5.90
2022-10-29T11:25:44.384Z,5.93
2022-10-29T11:28:13.681Z,6.23
2022-10-29T11:30:42.636Z,6.03
2022-10-29T11:33:26.960Z,6.33
2022-10-29T11:36:03.405Z,5.90
2022-10-29T11:38:48.583Z,5.87
2022-10-29T11:41:14.989Z,6.10
2022-10-29T11:43:41.426Z,5.80
2022-10-29T11:46:16.449Z,5.70
2022-10-29T11:49:15.232Z,6.10
2022-10-29T11:52:00.091Z,5.57
2022-10-29T11:54:29.546Z,5.83
2022-10-29T11:57:00.826Z,5.87
2022-10-29T11:59:43.279Z,6.30
2022-10-29T12:02:09.648Z,6.07
2022-10-29T12:04:39.633Z,6.30
2022-10-29T12:07:15.260Z,5.97
2022-10-29T12:09:44.405Z,5.63
2022-10-29T12:12:14.437Z,6.10
2022-10-29T12:14:45.468Z,6.77
2022-10-29T12:17:17.923Z,5.63
2022-10-29T12:19:44.287Z,5.93
2022-10-29T12:22:13.442Z,5.07
2022-10-29T12:24:53.902Z,5.67
2022-10-29T12:27:20.511Z,5.77
2022-10-29T12:30:13.029Z,6.00
2022-10-29T12:32:42.533Z,5.73
2022-10-29T12:35:12.236Z,6.23
2022-10-29T12:37:38.704Z,5.97
2022-10-29T12:40:14.237Z,5.83
2022-10-29T12:42:40.916Z,5.87
2022-10-29T12:45:16.152Z,5.87
2022-10-29T12:47:48.646Z,5.67
2022-10-29T12:50:24.042Z,6.33
2022-10-29T12:52:57.675Z,5.57
2022-10-29T12:55:24.586Z,5.30
2022-10-29T12:57:50.972Z,5.17
2022-10-29T13:00:23.519Z,5.80
2022-10-29T13:02:52.059Z,5.83
2022-10-29T13:05:34.379Z,5.37
2022-10-29T13:08:03.518Z,5.20
2022-10-29T13:10:33.052Z,5.10
2022-10-29T13:12:59.553Z,4.80
2022-10-29T13:15:32.136Z,6.00
2022-10-29T13:18:02.374Z,5.07
2022-10-29T13:20:43.012Z,4.97
2022-10-29T13:23:21.843Z,5.03
2022-10-29T13:25:52.173Z,5.53
2022-10-29T13:28:18.629Z,4.93
2022-10-29T13:30:48.211Z,5.77
2022-10-29T13:33:20.463Z,5.67
2022-10-29T13:36:07.149Z,4.80
2022-10-29T13:38:57.800Z,5.17
2022-10-29T13:41:39.857Z,5.60
2022-10-29T13:44:23.081Z,4.87
2022-10-29T13:46:49.545Z,5.03
2022-10-29T13:49:27.946Z,5.47
2022-10-29T13:51:56.896Z,5.30
2022-10-29T13:54:32.020Z,4.80
2022-10-29T13:57:00.165Z,5.43
2022-10-29T13:59:43.431Z,5.20
2022-10-29T14:02:16.150Z,5.20
2022-10-29T14:04:46.938Z,5.20
2022-10-29T14:07:16.729Z,5.23
2022-10-29T14:09:46.026Z,5.50
2022-10-29T14:12:16.401Z,5.80
2022-10-29T14:14:45.524Z,13.43
2022-10-29T14:17:13.368Z,9.90
2022-10-29T14:19:43.658Z,7.07
2022-10-29T14:22:18.842Z,6.30
2022-10-29T14:24:45.300Z,7.80
2022-10-29T14:27:12.681Z,8.10
2022-10-29T14:29:39.452Z,9.43
2022-10-29T14:32:18.606Z,7.27
2022-10-29T14:34:47.765Z,7.37
2022-10-29T14:37:17.593Z,6.30
2022-10-29T14:39:57.900Z,5.33
2022-10-29T14:42:33.151Z,5.87
2022-10-29T14:45:01.129Z,5.90
2022-10-29T14:47:32.382Z,6.03
2022-10-29T14:50:02.875Z,6.07
2022-10-29T14:52:29.397Z,6.30
2022-10-29T14:54:58.275Z,6.10
2022-10-29T14:57:25.578Z,6.10
2022-10-29T14:59:54.489Z,6.13
2022-10-29T15:02:37.520Z,6.27
2022-10-29T15:05:20.344Z,6.00
2022-10-29T15:07:46.889Z,5.60
2022-10-29T15:10:18.661Z,5.87
2022-10-29T15:12:45.486Z,5.83
2022-10-29T15:15:17.977Z,6.20
2022-10-29T15:17:53.664Z,5.33
2022-10-29T15:20:22.383Z,5.93
2022-10-29T15:22:52.661Z,6.70
2022-10-29T15:25:23.717Z,5.63
2022-10-29T15:27:51.634Z,5.93
2022-10-29T15:30:21.785Z,6.30
2022-10-29T15:32:48.763Z,5.27
2022-10-29T15:35:20.375Z,5.93
2022-10-29T15:37:46.841Z,5.43
2022-10-29T15:40:17.422Z,5.63
2022-10-29T15:42:45.460Z,5.83
2022-10-29T15:47:40.370Z,6.00
2022-10-29T15:50:09.303Z,7.07
2022-10-29T15:52:40.396Z,6.50
2022-10-29T15:55:14.978Z,6.73
2022-10-29T15:57:41.538Z,5.90
2022-10-29T16:00:09.047Z,6.20
2022-10-29T16:02:35.562Z,6.30
2022-10-29T16:05:02.003Z,6.43
2022-10-29T16:07:28.491Z,6.00
2022-10-29T16:09:56.516Z,6.67
2022-10-29T16:12:22.903Z,7.03
2022-10-29T16:14:49.312Z,6.30
2022-10-29T16:17:17.000Z,7.03
2022-10-29T16:19:43.771Z,6.93
2022-10-29T16:22:20.394Z,6.57
2022-10-29T16:24:47.109Z,7.60
2022-10-29T16:27:15.120Z,7.17
2022-10-29T16:29:41.603Z,6.70
2022-10-29T16:32:15.022Z,7.30
2022-10-29T16:34:41.438Z,6.70
2022-10-29T16:37:11.753Z,6.50
2022-10-29T16:39:38.152Z,6.67
2022-10-29T16:42:04.598Z,6.80
2022-10-29T16:44:31.022Z,6.97
2022-10-29T16:46:57.430Z,6.37
2022-10-29T16:49:23.821Z,7.00
2022-10-29T16:51:50.198Z,6.30
2022-10-29T16:54:16.606Z,6.47
2022-10-29T16:56:43.154Z,7.43
2022-10-29T16:59:09.634Z,7.00
2022-10-29T17:01:36.091Z,6.03
2022-10-29T17:04:02.678Z,7.73
2022-10-29T17:06:29.135Z,7.53
2022-10-29T17:08:55.504Z,8.33
2022-10-29T17:11:21.881Z,9.03
2022-10-29T17:13:48.433Z,8.77
2022-10-29T17:16:16.280Z,7.77
2022-10-29T17:18:42.679Z,7.70
2022-10-29T17:21:09.088Z,7.37
2022-10-29T17:23:35.509Z,7.60
2022-10-29T17:26:01.945Z,7.17
2022-10-29T17:28:28.571Z,7.40
2022-10-29T17:30:54.987Z,7.70
2022-10-29T17:33:21.477Z,8.70
2022-10-29T17:35:47.854Z,11.77
2022-10-29T17:38:14.306Z,14.23
2022-10-29T17:40:43.678Z,16.70
2022-10-29T17:43:10.524Z,17.47
2022-10-29T17:45:37.155Z,17.07
2022-10-29T17:48:03.716Z,13.57
2022-10-29T17:50:30.143Z,10.13
2022-10-29T17:52:57.991Z,11.03
2022-10-29T17:55:24.560Z,9.67
2022-10-29T17:57:50.934Z,9.17
2022-10-29T18:00:17.603Z,9.47
2022-10-29T18:02:44.686Z,10.37
2022-10-29T18:05:11.203Z,10.23
2022-10-29T18:07:37.598Z,9.47
2022-10-29T18:10:04.124Z,8.90
2022-10-29T18:12:30.543Z,9.37
2022-10-29T18:14:56.968Z,13.13
2022-10-29T18:17:23.361Z,9.43
2022-10-29T18:19:49.823Z,13.57
2022-10-29T18:22:16.298Z,11.53
2022-10-29T18:24:42.776Z,9.37
2022-10-29T18:27:09.155Z,9.93
2022-10-29T18:29:35.531Z,8.77
2022-10-29T18:32:02.280Z,9.03
2022-10-29T18:34:29.060Z,9.10
2022-10-29T18:36:55.424Z,8.77
2022-10-29T18:39:22.196Z,8.57
2022-10-29T18:41:48.780Z,8.70
2022-10-29T18:44:15.339Z,9.17
2022-10-29T18:46:41.752Z,8.97
2022-10-29T18:49:09.858Z,8.53
2022-10-29T18:51:36.375Z,9.77
2022-10-29T18:54:02.746Z,8.90
2022-10-29T18:56:29.547Z,8.77
2022-10-29T18:58:56.540Z,9.23
2022-10-29T19:01:24.538Z,9.40
2022-10-29T19:03:52.151Z,9.37
2022-10-29T19:06:19.521Z,10.03
2022-10-29T19:08:45.889Z,9.53
2022-10-29T19:11:13.566Z,9.70
2022-10-29T19:13:40.302Z,10.17
2022-10-29T19:16:08.055Z,11.73
2022-10-29T19:18:34.886Z,10.60
2022-10-29T19:21:02.513Z,12.00
2022-10-29T19:23:29.145Z,10.30
2022-10-29T19:25:55.588Z,11.33
2022-10-29T19:28:22.208Z,11.03
2022-10-29T19:30:48.634Z,11.03
2022-10-29T19:33:15.032Z,11.40
2022-10-29T19:35:41.403Z,12.17
2022-10-29T19:38:07.797Z,10.60
2022-10-29T19:40:34.213Z,12.27
2022-10-29T19:43:00.584Z,11.13
2022-10-29T19:45:27.030Z,11.43
2022-10-29T19:47:53.538Z,10.83
2022-10-29T19:50:20.409Z,12.13
2022-10-29T19:52:46.858Z,11.03
2022-10-29T19:55:14.539Z,11.63
2022-10-29T19:57:41.045Z,12.13
2022-10-29T20:00:09.352Z,11.93
2022-10-29T20:02:38.571Z,12.50
2022-10-29T20:05:05.692Z,12.57
2022-10-29T20:07:32.387Z,13.03
2022-10-29T20:09:58.915Z,12.73
2022-10-29T20:12:25.285Z,11.70
2022-10-29T20:14:51.742Z,12.53
2022-10-29T20:17:18.185Z,11.10
2022-10-29T20:19:44.599Z,12.10
2022-10-29T20:22:11.087Z,11.77
2022-10-29T20:24:37.768Z,12.23
2022-10-29T20:27:04.229Z,13.23
2022-10-29T20:29:30.622Z,13.37
2022-10-29T20:31:56.998Z,14.53
2022-10-29T20:34:23.501Z,15.13
2022-10-29T20:36:50.061Z,15.30
2022-10-29T20:39:16.619Z,17.40
2022-10-29T20:41:43.777Z,16.30
2022-10-29T20:44:10.166Z,16.00
2022-10-29T20:46:40.863Z,16.33
2022-10-29T20:49:09.827Z,14.63
2022-10-29T20:51:36.217Z,14.93
2022-10-29T20:54:02.821Z,14.70
2022-10-29T20:56:29.188Z,14.30
2022-10-29T20:58:55.593Z,15.03
2022-10-29T21:01:23.030Z,14.03
2022-10-29T21:03:50.317Z,13.57
2022-10-29T21:06:17.620Z,13.67
2022-10-29T21:08:44.487Z,14.70
2022-10-29T21:11:11.599Z,14.17
2022-10-29T21:13:38.415Z,14.30
2022-10-29T21:16:28.176Z,15.60
2022-10-29T21:18:58.583Z,14.30
2022-10-29T21:21:25.471Z,13.97
2022-10-29T21:23:52.197Z,14.77
2022-10-29T21:26:20.086Z,14.50
2022-10-29T21:28:47.104Z,14.60
2022-10-29T21:31:13.471Z,15.23
2022-10-29T21:33:40.158Z,14.03
2022-10-29T21:36:06.877Z,14.40
2022-10-29T21:38:33.588Z,15.80
2022-10-29T21:41:03.130Z,14.23
2022-10-29T21:43:29.791Z,13.63
2022-10-29T21:45:56.179Z,16.15
2022-10-29T21:48:24.786Z,15.00
2022-10-29T21:50:57.961Z,13.37
2022-10-29T21:53:24.427Z,14.70
2022-10-29T21:55:55.387Z,14.70
2022-10-29T21:58:21.745Z,13.30
2022-10-29T22:00:48.287Z,14.67
2022-10-29T22:03:14.734Z,14.47
2022-10-29T22:05:41.313Z,13.77
2022-10-29T22:08:08.230Z,13.53
2022-10-29T22:10:34.669Z,14.23
2022-10-29T22:13:01.164Z,14.83
2022-10-29T22:15:27.715Z,13.90
2022-10-29T22:17:54.094Z,13.80
2022-10-29T22:20:33.078Z,14.20
2022-10-29T22:22:59.788Z,15.00
2022-10-29T22:25:26.562Z,13.90
2022-10-29T22:27:52.923Z,14.00
2022-10-29T22:30:19.249Z,14.00
2022-10-29T22:32:45.956Z,14.80
2022-10-29T22:35:12.337Z,14.47
2022-10-29T22:37:38.726Z,12.90
2022-10-29T22:40:05.473Z,13.70
2022-10-29T22:42:31.861Z,13.73
2022-10-29T22:44:58.246Z,14.03
2022-10-29T22:47:24.662Z,15.17
2022-10-29T22:49:51.120Z,15.87
2022-10-29T22:52:17.516Z,15.17
2022-10-29T22:54:43.966Z,15.53
2022-10-29T22:57:10.503Z,15.77
2022-10-29T22:59:36.885Z,14.80
2022-10-29T23:02:03.483Z,13.83
2022-10-29T23:04:30.078Z,15.47
2022-10-29T23:07:01.621Z,16.50
2022-10-29T23:09:28.436Z,14.93
2022-10-29T23:11:54.836Z,14.60
2022-10-29T23:14:21.280Z,15.20
2022-10-29T23:16:47.687Z,14.73
2022-10-29T23:19:14.116Z,15.13
2022-10-29T23:21:40.531Z,16.00
2022-10-29T23:24:07.159Z,15.10
2022-10-29T23:26:33.625Z,15.10
2022-10-29T23:29:00.052Z,14.27
2022-10-29T23:31:27.427Z,14.20
2022-10-29T23:33:55.373Z,15.23
2022-10-29T23:36:23.009Z,15.37
2022-10-29T23:38:59.444Z,14.93
2022-10-29T23:41:26.520Z,14.63
2022-10-29T23:43:53.030Z,14.60
2022-10-29T23:46:19.490Z,14.40
2022-10-29T23:48:46.018Z,15.43
2022-10-29T23:51:12.442Z,15.13
2022-10-29T23:53:38.947Z,14.50
2022-10-29T23:56:05.667Z,14.87
2022-10-29T23:58:32.057Z,14.57
